Yuho Maru No.3 — JD2491 — position and weather

sailwx.info

Track history (hours):
 
Tides and Currents Weather Stations Pressure Air Temp Water Temp Dewpoint Dewpoint Depression Visibility Wind Speed Wind Dir Waves Ship Positions

Yuho Maru No.3

Last reported at 2015-Mar-29 13:16 UTC. Time now 2015-Mar-29 23:49 UTC.
Position N 34°08' E 134°43'.

Length 65 m; draft 4.2 m.

Type: Tanker. MMSI: 431000336.

Date/timePositionNaut miles runAvg speedWind from/ knotsBaromVisibWave heightAir tempDewpointWater temp
2015-Mar-29 13:16N 34°08' E 134°43'244 9.0
2015-Mar-28 10:07N 35°03' E 139°32'610.4
2015-Mar-28 09:33N 35°06' E 139°38'1010.1
2015-Mar-28 08:33N 35°14' E 139°46'1111.1
2015-Mar-28 07:33N 35°24' E 139°43'1110.9
2015-Mar-28 06:33N 35°31' E 139°54'1010.2
2015-Mar-28 05:33N 35°33' E 140°06'0 0.0
2015-Mar-28 04:32N 35°33' E 140°06'0 0.0
2015-Mar-28 03:33N 35°33' E 140°06'0 0.0
2015-Mar-28 02:33N 35°33' E 140°06'0 0.0
2015-Mar-28 01:33N 35°33' E 140°06'2 1.7
2015-Mar-28 00:33N 35°35' E 140°04'2 2.3
2015-Mar-27 23:33N 35°36' E 140°06'0 0.0
2015-Mar-27 22:33N 35°36' E 140°06'0 0.0
2015-Mar-27 21:33N 35°36' E 140°06'0 0.0
2015-Mar-27 20:33N 35°36' E 140°06'0 0.0
2015-Mar-27 19:33N 35°36' E 140°06'0 0.0
2015-Mar-27 18:33N 35°36' E 140°06'0 0.0
2015-Mar-27 17:33N 35°36' E 140°06'0 0.0
2015-Mar-27 16:33N 35°36' E 140°06'0 0.0
2015-Mar-27 15:33N 35°36' E 140°06'0 0.0
2015-Mar-27 14:33N 35°36' E 140°06'0 0.0
2015-Mar-27 13:33N 35°36' E 140°06'0 0.0
2015-Mar-27 12:33N 35°36' E 140°06'0 0.0
2015-Mar-27 11:33N 35°36' E 140°06'0 0.0
2015-Mar-27 10:33N 35°36' E 140°06'0 0.0
2015-Mar-27 09:33N 35°36' E 140°06'0 0.0
2015-Mar-27 08:33N 35°36' E 140°06'0 0.0
2015-Mar-27 07:33N 35°36' E 140°06'0 0.0
2015-Mar-27 06:33N 35°36' E 140°06'0 0.0
2015-Mar-27 05:33N 35°36' E 140°06'0 0.0
2015-Mar-27 04:33N 35°36' E 140°06'0 0.0
2015-Mar-27 03:33N 35°36' E 140°06'0 0.0
2015-Mar-27 02:33N 35°36' E 140°06'0 0.0
2015-Mar-27 01:33N 35°36' E 140°06'0 0.0
2015-Mar-27 00:33N 35°36' E 140°06'0 0.0
2015-Mar-26 23:33N 35°36' E 140°06'0 0.0
2015-Mar-26 22:33N 35°36' E 140°06'0 0.0
2015-Mar-26 21:33N 35°36' E 140°06'0 0.0
2015-Mar-26 20:32N 35°36' E 140°06'0 0.0
2015-Mar-26 19:33N 35°36' E 140°06'0 0.0
2015-Mar-26 18:33N 35°36' E 140°06'0 0.0
2015-Mar-26 17:33N 35°36' E 140°06'0 0.0
2015-Mar-26 16:34N 35°36' E 140°06'0 0.0
2015-Mar-26 15:33N 35°36' E 140°06'0 0.0
2015-Mar-26 14:33N 35°36' E 140°06'0 0.0
2015-Mar-26 13:33N 35°36' E 140°06'0 0.0
2015-Mar-26 12:33N 35°36' E 140°06'0 0.0
2015-Mar-26 11:32N 35°36' E 140°06'0 0.0
2015-Mar-26 10:33N 35°36' E 140°06'0 0.0
2015-Mar-26 09:33N 35°36' E 140°06'6 5.9
2015-Mar-26 08:32N 35°32' E 140°01'3 3.0
2015-Mar-26 07:33N 35°29' E 140°01'0 0.0
2015-Mar-26 06:33N 35°29' E 140°01'0 0.0
2015-Mar-26 05:33N 35°29' E 140°01'7 7.4
2015-Mar-26 04:33N 35°30' E 139°52'5 5.0
2015-Mar-26 03:33N 35°31' E 139°46'0 0.0
2015-Mar-26 02:33N 35°31' E 139°46'0 0.0
2015-Mar-26 01:33N 35°31' E 139°46'0 0.0
2015-Mar-26 00:33N 35°31' E 139°46'0 0.0
2015-Mar-25 23:33N 35°31' E 139°46'1 0.6
2015-Mar-25 22:34N 35°30' E 139°46'4 3.5
2015-Mar-25 21:33N 35°30' E 139°50'0 0.0
2015-Mar-25 20:33N 35°30' E 139°50'0 0.0
2015-Mar-25 19:33N 35°30' E 139°50'0 0.0
2015-Mar-25 18:33N 35°30' E 139°50'0 0.0
2015-Mar-25 17:33N 35°30' E 139°50'0 0.0
2015-Mar-25 16:33N 35°30' E 139°50'0 0.0
2015-Mar-25 15:33N 35°30' E 139°50'0 0.0
2015-Mar-25 14:33N 35°30' E 139°50'0 0.0
2015-Mar-25 13:33N 35°30' E 139°50'0 0.0
2015-Mar-25 12:33N 35°30' E 139°50'0 0.0
2015-Mar-25 11:33N 35°30' E 139°50'0 0.0
2015-Mar-25 10:33N 35°30' E 139°50'10 9.7
2015-Mar-25 09:34N 35°31' E 140°02'1 0.7
2015-Mar-25 08:33N 35°31' E 140°03'0 0.0
2015-Mar-25 07:33N 35°31' E 140°03'0 0.0
2015-Mar-25 06:33N 35°31' E 140°03'0 0.0
2015-Mar-25 05:33N 35°31' E 140°03'1 1.0
2015-Mar-25 04:33N 35°30' E 140°02'0 0.0
2015-Mar-25 03:33N 35°30' E 140°02'0 0.0
2015-Mar-25 02:33N 35°30' E 140°02'0 0.0
2015-Mar-25 01:33N 35°30' E 140°02'1 1.4
2015-Mar-25 00:33N 35°30' E 140°00'0 0.0
2015-Mar-24 23:33N 35°30' E 140°00'0 0.0
2015-Mar-24 22:33N 35°30' E 140°00'0 0.0
2015-Mar-24 21:33N 35°30' E 140°00'0 0.0
2015-Mar-24 20:34N 35°30' E 140°00'0 0.0
2015-Mar-24 19:33N 35°30' E 140°00'0 0.0
2015-Mar-24 18:33N 35°30' E 140°00'0 0.0
2015-Mar-24 17:33N 35°30' E 140°00'0 0.0
2015-Mar-24 16:33N 35°30' E 140°00'0 0.0
2015-Mar-24 15:33N 35°30' E 140°00'0 0.0
2015-Mar-24 14:33N 35°30' E 140°00'0 0.0
2015-Mar-24 13:33N 35°30' E 140°00'0 0.0
2015-Mar-24 12:32N 35°30' E 140°00'0 0.0
2015-Mar-24 11:33N 35°30' E 140°00'0 0.0
2015-Mar-24 10:33N 35°30' E 140°00'0 0.0
2015-Mar-24 09:33N 35°30' E 140°00'0 0.0
2015-Mar-24 08:33N 35°30' E 140°00'0 0.0
2015-Mar-24 07:33N 35°30' E 140°00'1 1.1
2015-Mar-24 06:33N 35°30' E 139°59'1110.5
2015-Mar-24 05:33N 35°31' E 139°46'0 0.0
2015-Mar-24 04:33N 35°31' E 139°46'0 0.0
2015-Mar-24 03:34N 35°31' E 139°46'5 4.9
2015-Mar-24 02:33N 35°30' E 139°52'7 7.4
2015-Mar-24 01:33N 35°28' E 140°01'0 0.0
2015-Mar-24 00:33N 35°28' E 140°01'0 0.0
2015-Mar-23 23:33N 35°28' E 140°01'0 0.0
2015-Mar-23 22:33N 35°28' E 140°01'3 3.1
2015-Mar-23 21:33N 35°32' E 140°01'6 6.4
2015-Mar-23 20:33N 35°36' E 140°06'0 0.0
2015-Mar-23 19:33N 35°36' E 140°06'0 0.0
2015-Mar-23 18:33N 35°36' E 140°06'0 0.0
2015-Mar-23 17:33N 35°36' E 140°06'0 0.0
2015-Mar-23 16:33N 35°36' E 140°06'0 0.0
2015-Mar-23 15:33N 35°36' E 140°06'0 0.0
2015-Mar-23 14:33N 35°36' E 140°06'0 0.0
2015-Mar-23 13:33N 35°36' E 140°06'0 0.0
2015-Mar-23 12:33N 35°36' E 140°06'0 0.0
2015-Mar-23 11:32N 35°36' E 140°06'0 0.0
2015-Mar-23 10:33N 35°36' E 140°06'0 0.0
2015-Mar-23 09:33N 35°36' E 140°06'0 0.0
2015-Mar-23 08:33N 35°36' E 140°06'0 0.0
2015-Mar-23 07:32N 35°36' E 140°06'0 0.0
2015-Mar-23 06:33N 35°36' E 140°06'0 0.0
2015-Mar-23 05:33N 35°36' E 140°06'0 0.0
2015-Mar-23 04:32N 35°36' E 140°06'0 0.0
2015-Mar-23 03:33N 35°36' E 140°06'0 0.0
2015-Mar-23 02:33N 35°36' E 140°06'0 0.0
2015-Mar-23 01:33N 35°36' E 140°06'8 7.5
2015-Mar-23 00:33N 35°40' E 139°59'0 0.5
2015-Mar-22 23:33N 35°41' E 139°59'0 0.0
2015-Mar-22 22:33N 35°41' E 139°59'0 0.0
2015-Mar-22 21:32N 35°41' E 139°59'0 0.0
2015-Mar-22 20:33N 35°41' E 139°59'0 0.0
2015-Mar-22 19:33N 35°41' E 139°59'0 0.0
2015-Mar-22 18:33N 35°41' E 139°59'0 0.0
2015-Mar-22 17:33N 35°41' E 139°59'0 0.0
2015-Mar-22 16:33N 35°41' E 139°59'0 0.0
2015-Mar-22 15:33N 35°41' E 139°59'0 0.0
2015-Mar-22 14:33N 35°41' E 139°59'0 0.0
2015-Mar-22 13:33N 35°41' E 139°59'0 0.0
2015-Mar-22 12:33N 35°41' E 139°59'0 0.0
2015-Mar-22 11:33N 35°41' E 139°59'0 0.0
2015-Mar-22 10:33N 35°41' E 139°59'0 0.0
2015-Mar-22 05:32N 35°41' E 139°59'0 0.0
2015-Mar-22 04:17N 35°41' E 139°59'6 0.2
2015-Mar-20 16:27N 35°36' E 139°54'0 0.0
2015-Mar-20 15:33N 35°36' E 139°54'0 0.0
2015-Mar-20 10:07N 35°36' E 139°54'0 0.0
2015-Mar-20 09:15N 35°36' E 139°54'8 0.7
2015-Mar-19 21:28N 35°29' E 140°00'1011.5
2015-Mar-19 20:33N 35°30' E 139°48'2 1.9
2015-Mar-19 19:33N 35°30' E 139°45'0 0.0
2015-Mar-19 18:33N 35°30' E 139°45'0 0.0
2015-Mar-19 17:33N 35°30' E 139°45'0 0.0
2015-Mar-19 16:33N 35°30' E 139°45'0 0.0
2015-Mar-19 15:33N 35°30' E 139°45'0 0.0
2015-Mar-19 14:33N 35°30' E 139°45'0 0.0
2015-Mar-19 13:33N 35°30' E 139°45'  
Track history (hours):
 
Tides and Currents Weather Stations Pressure Air Temp Water Temp Dewpoint Dewpoint Depression Visibility Wind Speed Wind Dir Waves Ship Positions

Yuho Maru No.3

Last reported at 2015-Mar-29 13:16 UTC. Time now 2015-Mar-29 23:49 UTC.
Position N 34°08' E 134°43'.

Length 65 m; draft 4.2 m.

Type: Tanker. MMSI: 431000336.

Date/timePositionNaut miles runAvg speedWind from/ knotsBaromVisibWave heightAir tempDewpointWater temp
2015-Mar-29 13:16N 34°08' E 134°43'244 9.0
2015-Mar-28 10:07N 35°03' E 139°32'610.4
2015-Mar-28 09:33N 35°06' E 139°38'1010.1
2015-Mar-28 08:33N 35°14' E 139°46'1111.1
2015-Mar-28 07:33N 35°24' E 139°43'1110.9
2015-Mar-28 06:33N 35°31' E 139°54'1010.2
2015-Mar-28 05:33N 35°33' E 140°06'0 0.0
2015-Mar-28 04:32N 35°33' E 140°06'0 0.0
2015-Mar-28 03:33N 35°33' E 140°06'0 0.0
2015-Mar-28 02:33N 35°33' E 140°06'0 0.0
2015-Mar-28 01:33N 35°33' E 140°06'2 1.7
2015-Mar-28 00:33N 35°35' E 140°04'2 2.3
2015-Mar-27 23:33N 35°36' E 140°06'0 0.0
2015-Mar-27 22:33N 35°36' E 140°06'0 0.0
2015-Mar-27 21:33N 35°36' E 140°06'0 0.0
2015-Mar-27 20:33N 35°36' E 140°06'0 0.0
2015-Mar-27 19:33N 35°36' E 140°06'0 0.0
2015-Mar-27 18:33N 35°36' E 140°06'0 0.0
2015-Mar-27 17:33N 35°36' E 140°06'0 0.0
2015-Mar-27 16:33N 35°36' E 140°06'0 0.0
2015-Mar-27 15:33N 35°36' E 140°06'0 0.0
2015-Mar-27 14:33N 35°36' E 140°06'0 0.0
2015-Mar-27 13:33N 35°36' E 140°06'0 0.0
2015-Mar-27 12:33N 35°36' E 140°06'0 0.0
2015-Mar-27 11:33N 35°36' E 140°06'0 0.0
2015-Mar-27 10:33N 35°36' E 140°06'0 0.0
2015-Mar-27 09:33N 35°36' E 140°06'0 0.0
2015-Mar-27 08:33N 35°36' E 140°06'0 0.0
2015-Mar-27 07:33N 35°36' E 140°06'0 0.0
2015-Mar-27 06:33N 35°36' E 140°06'0 0.0
2015-Mar-27 05:33N 35°36' E 140°06'0 0.0
2015-Mar-27 04:33N 35°36' E 140°06'0 0.0
2015-Mar-27 03:33N 35°36' E 140°06'0 0.0
2015-Mar-27 02:33N 35°36' E 140°06'0 0.0
2015-Mar-27 01:33N 35°36' E 140°06'0 0.0
2015-Mar-27 00:33N 35°36' E 140°06'0 0.0
2015-Mar-26 23:33N 35°36' E 140°06'0 0.0
2015-Mar-26 22:33N 35°36' E 140°06'0 0.0
2015-Mar-26 21:33N 35°36' E 140°06'0 0.0
2015-Mar-26 20:32N 35°36' E 140°06'0 0.0
2015-Mar-26 19:33N 35°36' E 140°06'0 0.0
2015-Mar-26 18:33N 35°36' E 140°06'0 0.0
2015-Mar-26 17:33N 35°36' E 140°06'0 0.0
2015-Mar-26 16:34N 35°36' E 140°06'0 0.0
2015-Mar-26 15:33N 35°36' E 140°06'0 0.0
2015-Mar-26 14:33N 35°36' E 140°06'0 0.0
2015-Mar-26 13:33N 35°36' E 140°06'0 0.0
2015-Mar-26 12:33N 35°36' E 140°06'0 0.0
2015-Mar-26 11:32N 35°36' E 140°06'0 0.0
2015-Mar-26 10:33N 35°36' E 140°06'0 0.0
2015-Mar-26 09:33N 35°36' E 140°06'6 5.9
2015-Mar-26 08:32N 35°32' E 140°01'3 3.0
2015-Mar-26 07:33N 35°29' E 140°01'0 0.0
2015-Mar-26 06:33N 35°29' E 140°01'0 0.0
2015-Mar-26 05:33N 35°29' E 140°01'7 7.4
2015-Mar-26 04:33N 35°30' E 139°52'5 5.0
2015-Mar-26 03:33N 35°31' E 139°46'0 0.0
2015-Mar-26 02:33N 35°31' E 139°46'0 0.0
2015-Mar-26 01:33N 35°31' E 139°46'0 0.0
2015-Mar-26 00:33N 35°31' E 139°46'0 0.0
2015-Mar-25 23:33N 35°31' E 139°46'1 0.6
2015-Mar-25 22:34N 35°30' E 139°46'4 3.5
2015-Mar-25 21:33N 35°30' E 139°50'0 0.0
2015-Mar-25 20:33N 35°30' E 139°50'0 0.0
2015-Mar-25 19:33N 35°30' E 139°50'0 0.0
2015-Mar-25 18:33N 35°30' E 139°50'0 0.0
2015-Mar-25 17:33N 35°30' E 139°50'0 0.0
2015-Mar-25 16:33N 35°30' E 139°50'0 0.0
2015-Mar-25 15:33N 35°30' E 139°50'0 0.0
2015-Mar-25 14:33N 35°30' E 139°50'0 0.0
2015-Mar-25 13:33N 35°30' E 139°50'0 0.0
2015-Mar-25 12:33N 35°30' E 139°50'0 0.0
2015-Mar-25 11:33N 35°30' E 139°50'0 0.0
2015-Mar-25 10:33N 35°30' E 139°50'10 9.7
2015-Mar-25 09:34N 35°31' E 140°02'1 0.7
2015-Mar-25 08:33N 35°31' E 140°03'0 0.0
2015-Mar-25 07:33N 35°31' E 140°03'0 0.0
2015-Mar-25 06:33N 35°31' E 140°03'0 0.0
2015-Mar-25 05:33N 35°31' E 140°03'1 1.0
2015-Mar-25 04:33N 35°30' E 140°02'0 0.0
2015-Mar-25 03:33N 35°30' E 140°02'0 0.0
2015-Mar-25 02:33N 35°30' E 140°02'0 0.0
2015-Mar-25 01:33N 35°30' E 140°02'1 1.4
2015-Mar-25 00:33N 35°30' E 140°00'0 0.0
2015-Mar-24 23:33N 35°30' E 140°00'0 0.0
2015-Mar-24 22:33N 35°30' E 140°00'0 0.0
2015-Mar-24 21:33N 35°30' E 140°00'0 0.0
2015-Mar-24 20:34N 35°30' E 140°00'0 0.0
2015-Mar-24 19:33N 35°30' E 140°00'0 0.0
2015-Mar-24 18:33N 35°30' E 140°00'0 0.0
2015-Mar-24 17:33N 35°30' E 140°00'0 0.0
2015-Mar-24 16:33N 35°30' E 140°00'0 0.0
2015-Mar-24 15:33N 35°30' E 140°00'0 0.0
2015-Mar-24 14:33N 35°30' E 140°00'0 0.0
2015-Mar-24 13:33N 35°30' E 140°00'0 0.0
2015-Mar-24 12:32N 35°30' E 140°00'0 0.0
2015-Mar-24 11:33N 35°30' E 140°00'0 0.0
2015-Mar-24 10:33N 35°30' E 140°00'0 0.0
2015-Mar-24 09:33N 35°30' E 140°00'0 0.0
2015-Mar-24 08:33N 35°30' E 140°00'0 0.0
2015-Mar-24 07:33N 35°30' E 140°00'1 1.1
2015-Mar-24 06:33N 35°30' E 139°59'1110.5
2015-Mar-24 05:33N 35°31' E 139°46'0 0.0
2015-Mar-24 04:33N 35°31' E 139°46'0 0.0
2015-Mar-24 03:34N 35°31' E 139°46'5 4.9
2015-Mar-24 02:33N 35°30' E 139°52'7 7.4
2015-Mar-24 01:33N 35°28' E 140°01'0 0.0
2015-Mar-24 00:33N 35°28' E 140°01'0 0.0
2015-Mar-23 23:33N 35°28' E 140°01'0 0.0
2015-Mar-23 22:33N 35°28' E 140°01'3 3.1
2015-Mar-23 21:33N 35°32' E 140°01'6 6.4
2015-Mar-23 20:33N 35°36' E 140°06'0 0.0
2015-Mar-23 19:33N 35°36' E 140°06'0 0.0
2015-Mar-23 18:33N 35°36' E 140°06'0 0.0
2015-Mar-23 17:33N 35°36' E 140°06'0 0.0
2015-Mar-23 16:33N 35°36' E 140°06'0 0.0
2015-Mar-23 15:33N 35°36' E 140°06'0 0.0
2015-Mar-23 14:33N 35°36' E 140°06'0 0.0
2015-Mar-23 13:33N 35°36' E 140°06'0 0.0
2015-Mar-23 12:33N 35°36' E 140°06'0 0.0
2015-Mar-23 11:32N 35°36' E 140°06'0 0.0
2015-Mar-23 10:33N 35°36' E 140°06'0 0.0
2015-Mar-23 09:33N 35°36' E 140°06'0 0.0
2015-Mar-23 08:33N 35°36' E 140°06'0 0.0
2015-Mar-23 07:32N 35°36' E 140°06'0 0.0
2015-Mar-23 06:33N 35°36' E 140°06'0 0.0
2015-Mar-23 05:33N 35°36' E 140°06'0 0.0
2015-Mar-23 04:32N 35°36' E 140°06'0 0.0
2015-Mar-23 03:33N 35°36' E 140°06'0 0.0
2015-Mar-23 02:33N 35°36' E 140°06'0 0.0
2015-Mar-23 01:33N 35°36' E 140°06'8 7.5
2015-Mar-23 00:33N 35°40' E 139°59'0 0.5
2015-Mar-22 23:33N 35°41' E 139°59'0 0.0
2015-Mar-22 22:33N 35°41' E 139°59'0 0.0
2015-Mar-22 21:32N 35°41' E 139°59'0 0.0
2015-Mar-22 20:33N 35°41' E 139°59'0 0.0
2015-Mar-22 19:33N 35°41' E 139°59'0 0.0
2015-Mar-22 18:33N 35°41' E 139°59'0 0.0
2015-Mar-22 17:33N 35°41' E 139°59'0 0.0
2015-Mar-22 16:33N 35°41' E 139°59'0 0.0
2015-Mar-22 15:33N 35°41' E 139°59'0 0.0
2015-Mar-22 14:33N 35°41' E 139°59'0 0.0
2015-Mar-22 13:33N 35°41' E 139°59'0 0.0
2015-Mar-22 12:33N 35°41' E 139°59'0 0.0
2015-Mar-22 11:33N 35°41' E 139°59'0 0.0
2015-Mar-22 10:33N 35°41' E 139°59'0 0.0
2015-Mar-22 05:32N 35°41' E 139°59'0 0.0
2015-Mar-22 04:17N 35°41' E 139°59'6 0.2
2015-Mar-20 16:27N 35°36' E 139°54'0 0.0
2015-Mar-20 15:33N 35°36' E 139°54'0 0.0
2015-Mar-20 10:07N 35°36' E 139°54'0 0.0
2015-Mar-20 09:15N 35°36' E 139°54'8 0.7
2015-Mar-19 21:28N 35°29' E 140°00'1011.5
2015-Mar-19 20:33N 35°30' E 139°48'2 1.9
2015-Mar-19 19:33N 35°30' E 139°45'0 0.0
2015-Mar-19 18:33N 35°30' E 139°45'0 0.0
2015-Mar-19 17:33N 35°30' E 139°45'0 0.0
2015-Mar-19 16:33N 35°30' E 139°45'0 0.0
2015-Mar-19 15:33N 35°30' E 139°45'0 0.0
2015-Mar-19 14:33N 35°30' E 139°45'0 0.0
2015-Mar-19 13:33N 35°30' E 139°45'  

Dump ship's entire track history